Altona, New York
Current Conditions -  °F | °C
As of 4:32 AM on Thursday 27 Nov 2014 (Local Time) from KPBG Reporting Station
Light Snow Light Snow  
Wind Chill: 17°   Ceiling: 3300
Heat Index: 28°   Visibility: 5mi
Dew Point: 25°   Wind: 15mph
Humidity: 88%   Direction: 350°N
Pressure: 29.97"   Gusts: NA
Location:  44.89°N, 73.66°W
Report Text: KPBG 270932Z AUTO 35013KT 5SM -SN BR FEW009 SCT013 OVC033 M02/M04 A2997 RMK AO2 P0000 T10221039
Loading
Personal Weather Stations






























Interactive Weather Map New forecast layout! Learn more

10-Day Weather Forecast

Advertisements
Track Severe Weather on mobile